sensor_id;sensor_type;location;lat;lon;timestamp;pressure;altitude;pressure_sealevel;temperature;humidity
61359;BME280;47228;46.762;23.598;2022-10-22T00:01:08;97551.35;;;7.51;69.83
61359;BME280;47228;46.762;23.598;2022-10-22T00:03:38;97547.09;;;7.48;70.00
61359;BME280;47228;46.762;23.598;2022-10-22T00:06:06;97545.84;;;7.47;70.08
61359;BME280;47228;46.762;23.598;2022-10-22T00:08:35;97540.05;;;7.45;70.09
61359;BME280;47228;46.762;23.598;2022-10-22T00:11:12;97538.02;;;7.43;70.15
61359;BME280;47228;46.762;23.598;2022-10-22T00:13:40;97538.77;;;7.40;70.01
61359;BME280;47228;46.762;23.598;2022-10-22T00:16:09;97539.16;;;7.36;69.96
61359;BME280;47228;46.762;23.598;2022-10-22T00:18:38;97530.06;;;7.33;69.96
61359;BME280;47228;46.762;23.598;2022-10-22T00:21:06;97530.02;;;7.31;69.92
61359;BME280;47228;46.762;23.598;2022-10-22T00:23:34;97525.55;;;7.28;70.05
61359;BME280;47228;46.762;23.598;2022-10-22T00:26:02;97527.86;;;7.28;69.99
61359;BME280;47228;46.762;23.598;2022-10-22T00:28:30;97531.72;;;7.29;70.16
61359;BME280;47228;46.762;23.598;2022-10-22T00:30:59;97528.48;;;7.29;70.29
61359;BME280;47228;46.762;23.598;2022-10-22T00:33:28;97529.70;;;7.31;70.32
61359;BME280;47228;46.762;23.598;2022-10-22T00:35:57;97524.52;;;7.31;70.32
61359;BME280;47228;46.762;23.598;2022-10-22T00:38:25;97521.33;;;7.31;70.52
61359;BME280;47228;46.762;23.598;2022-10-22T00:40:53;97523.80;;;7.31;70.56
61359;BME280;47228;46.762;23.598;2022-10-22T00:43:21;97520.10;;;7.31;70.46
61359;BME280;47228;46.762;23.598;2022-10-22T00:45:49;97520.59;;;7.32;70.75
61359;BME280;47228;46.762;23.598;2022-10-22T00:48:28;97520.16;;;7.32;70.53
61359;BME280;47228;46.762;23.598;2022-10-22T00:51:03;97521.42;;;7.31;70.70
61359;BME280;47228;46.762;23.598;2022-10-22T00:53:42;97518.44;;;7.29;70.74
61359;BME280;47228;46.762;23.598;2022-10-22T00:56:12;97514.52;;;7.26;70.61
61359;BME280;47228;46.762;23.598;2022-10-22T00:58:44;97516.20;;;7.22;70.81
61359;BME280;47228;46.762;23.598;2022-10-22T01:01:17;97520.51;;;7.14;70.67
61359;BME280;47228;46.762;23.598;2022-10-22T01:03:49;97511.98;;;7.07;71.06
61359;BME280;47228;46.762;23.598;2022-10-22T01:06:29;97513.76;;;7.02;71.39
61359;BME280;47228;46.762;23.598;2022-10-22T01:14:51;97505.02;;;6.97;72.09
61359;BME280;47228;46.762;23.598;2022-10-22T01:17:35;97505.73;;;6.95;72.11
61359;BME280;47228;46.762;23.598;2022-10-22T01:25:36;97508.27;;;6.83;72.11
61359;BME280;47228;46.762;23.598;2022-10-22T01:31:10;97502.01;;;6.80;72.31
61359;BME280;47228;46.762;23.598;2022-10-22T01:33:41;97501.59;;;6.79;72.55
61359;BME280;47228;46.762;23.598;2022-10-22T01:36:11;97502.22;;;6.76;72.53
61359;BME280;47228;46.762;23.598;2022-10-22T01:38:40;97500.83;;;6.73;72.72
61359;BME280;47228;46.762;23.598;2022-10-22T01:41:09;97497.22;;;6.69;72.70
61359;BME280;47228;46.762;23.598;2022-10-22T01:43:37;97498.31;;;6.67;73.21
61359;BME280;47228;46.762;23.598;2022-10-22T01:46:05;97497.87;;;6.65;73.32
61359;BME280;47228;46.762;23.598;2022-10-22T01:55:12;97490.80;;;6.67;73.70
61359;BME280;47228;46.762;23.598;2022-10-22T01:57:56;97493.91;;;6.67;73.65
61359;BME280;47228;46.762;23.598;2022-10-22T02:00:28;97490.94;;;6.67;73.72
61359;BME280;47228;46.762;23.598;2022-10-22T02:03:07;97489.84;;;6.67;73.68
61359;BME280;47228;46.762;23.598;2022-10-22T02:05:48;97485.02;;;6.69;74.06
61359;BME280;47228;46.762;23.598;2022-10-22T02:08:27;97483.86;;;6.72;73.85
61359;BME280;47228;46.762;23.598;2022-10-22T02:10:57;97484.02;;;6.74;73.99
61359;BME280;47228;46.762;23.598;2022-10-22T02:13:32;97481.95;;;6.74;73.80
61359;BME280;47228;46.762;23.598;2022-10-22T02:16:05;97482.22;;;6.73;73.90
61359;BME280;47228;46.762;23.598;2022-10-22T02:18:36;97487.86;;;6.72;73.85
61359;BME280;47228;46.762;23.598;2022-10-22T02:21:07;97493.30;;;6.73;74.00
61359;BME280;47228;46.762;23.598;2022-10-22T02:23:35;97492.79;;;6.71;73.99
61359;BME280;47228;46.762;23.598;2022-10-22T02:26:10;97491.92;;;6.68;74.11
61359;BME280;47228;46.762;23.598;2022-10-22T02:28:57;97488.04;;;6.66;74.15
61359;BME280;47228;46.762;23.598;2022-10-22T02:31:29;97488.57;;;6.65;74.19
61359;BME280;47228;46.762;23.598;2022-10-22T02:34:02;97485.39;;;6.62;74.28
61359;BME280;47228;46.762;23.598;2022-10-22T02:36:31;97480.20;;;6.61;74.26
61359;BME280;47228;46.762;23.598;2022-10-22T02:39:00;97488.35;;;6.62;74.04
61359;BME280;47228;46.762;23.598;2022-10-22T02:41:29;97482.00;;;6.64;74.19
61359;BME280;47228;46.762;23.598;2022-10-22T02:43:57;97479.12;;;6.66;74.11
61359;BME280;47228;46.762;23.598;2022-10-22T02:46:25;97483.61;;;6.67;73.94
61359;BME280;47228;46.762;23.598;2022-10-22T02:48:53;97478.64;;;6.68;73.62
61359;BME280;47228;46.762;23.598;2022-10-22T02:51:21;97475.94;;;6.69;73.53
61359;BME280;47228;46.762;23.598;2022-10-22T02:53:49;97476.30;;;6.66;73.42
61359;BME280;47228;46.762;23.598;2022-10-22T02:56:16;97478.34;;;6.65;73.53
61359;BME280;47228;46.762;23.598;2022-10-22T02:58:44;97469.02;;;6.63;73.62
61359;BME280;47228;46.762;23.598;2022-10-22T03:01:13;97470.76;;;6.63;73.61
61359;BME280;47228;46.762;23.598;2022-10-22T03:03:42;97469.94;;;6.63;73.61
61359;BME280;47228;46.762;23.598;2022-10-22T03:06:10;97467.42;;;6.63;73.68
61359;BME280;47228;46.762;23.598;2022-10-22T03:08:38;97465.86;;;6.65;74.14
61359;BME280;47228;46.762;23.598;2022-10-22T03:11:06;97457.21;;;6.67;74.12
61359;BME280;47228;46.762;23.598;2022-10-22T03:13:34;97454.02;;;6.67;73.92
61359;BME280;47228;46.762;23.598;2022-10-22T03:16:02;97458.61;;;6.65;73.71
61359;BME280;47228;46.762;23.598;2022-10-22T03:18:30;97456.58;;;6.63;73.78
61359;BME280;47228;46.762;23.598;2022-10-22T03:21:27;97457.79;;;6.60;73.63
61359;BME280;47228;46.762;23.598;2022-10-22T03:23:58;97460.24;;;6.57;73.82
61359;BME280;47228;46.762;23.598;2022-10-22T03:26:26;97459.12;;;6.56;73.85
61359;BME280;47228;46.762;23.598;2022-10-22T03:28:54;97460.58;;;6.55;74.25
61359;BME280;47228;46.762;23.598;2022-10-22T03:31:22;97469.77;;;6.55;73.85
61359;BME280;47228;46.762;23.598;2022-10-22T03:33:50;97469.48;;;6.51;73.84
61359;BME280;47228;46.762;23.598;2022-10-22T03:36:17;97470.23;;;6.49;74.06
61359;BME280;47228;46.762;23.598;2022-10-22T03:38:46;97471.06;;;6.46;74.29
61359;BME280;47228;46.762;23.598;2022-10-22T03:41:14;97470.33;;;6.42;73.97
61359;BME280;47228;46.762;23.598;2022-10-22T03:43:42;97469.19;;;6.39;74.17
61359;BME280;47228;46.762;23.598;2022-10-22T03:46:11;97471.44;;;6.37;74.42
61359;BME280;47228;46.762;23.598;2022-10-22T03:48:39;97474.60;;;6.34;74.62
61359;BME280;47228;46.762;23.598;2022-10-22T03:51:07;97459.05;;;6.29;74.78
61359;BME280;47228;46.762;23.598;2022-10-22T03:53:35;97462.75;;;6.28;75.05
61359;BME280;47228;46.762;23.598;2022-10-22T03:56:07;97467.98;;;6.25;75.42
61359;BME280;47228;46.762;23.598;2022-10-22T03:58:37;97476.31;;;6.21;75.51
61359;BME280;47228;46.762;23.598;2022-10-22T04:01:11;97460.89;;;6.19;75.76
61359;BME280;47228;46.762;23.598;2022-10-22T04:03:39;97472.00;;;6.19;75.66
61359;BME280;47228;46.762;23.598;2022-10-22T04:06:10;97475.62;;;6.19;75.94
61359;BME280;47228;46.762;23.598;2022-10-22T04:08:40;97461.91;;;6.19;75.78
61359;BME280;47228;46.762;23.598;2022-10-22T04:11:09;97473.75;;;6.17;75.78
61359;BME280;47228;46.762;23.598;2022-10-22T04:13:37;97470.06;;;6.14;75.98
61359;BME280;47228;46.762;23.598;2022-10-22T04:16:11;97462.98;;;6.13;76.07
61359;BME280;47228;46.762;23.598;2022-10-22T04:18:39;97469.75;;;6.12;75.91
61359;BME280;47228;46.762;23.598;2022-10-22T04:21:09;97466.56;;;6.11;75.92
61359;BME280;47228;46.762;23.598;2022-10-22T04:23:38;97467.56;;;6.10;75.89
61359;BME280;47228;46.762;23.598;2022-10-22T04:26:06;97463.15;;;6.07;75.91
61359;BME280;47228;46.762;23.598;2022-10-22T04:28:34;97461.19;;;6.04;76.04
61359;BME280;47228;46.762;23.598;2022-10-22T04:31:10;97454.86;;;6.02;76.20
61359;BME280;47228;46.762;23.598;2022-10-22T04:33:39;97460.36;;;6.03;76.37
61359;BME280;47228;46.762;23.598;2022-10-22T04:36:16;97454.39;;;6.05;76.18
61359;BME280;47228;46.762;23.598;2022-10-22T04:38:46;97459.33;;;6.06;76.16
61359;BME280;47228;46.762;23.598;2022-10-22T04:41:17;97458.77;;;6.06;76.31
61359;BME280;47228;46.762;23.598;2022-10-22T04:43:45;97457.21;;;6.08;76.22
61359;BME280;47228;46.762;23.598;2022-10-22T04:46:16;97465.17;;;6.09;76.24
61359;BME280;47228;46.762;23.598;2022-10-22T04:48:44;97460.77;;;6.09;76.33
61359;BME280;47228;46.762;23.598;2022-10-22T04:51:15;97469.95;;;6.11;76.13
61359;BME280;47228;46.762;23.598;2022-10-22T04:53:44;97467.79;;;6.09;76.08
61359;BME280;47228;46.762;23.598;2022-10-22T04:56:15;97465.91;;;6.09;76.15
61359;BME280;47228;46.762;23.598;2022-10-22T04:58:47;97468.19;;;6.07;76.01
61359;BME280;47228;46.762;23.598;2022-10-22T05:01:18;97470.73;;;6.03;76.05
61359;BME280;47228;46.762;23.598;2022-10-22T05:03:48;97467.70;;;6.00;76.23
61359;BME280;47228;46.762;23.598;2022-10-22T05:06:17;97470.38;;;6.00;76.31
61359;BME280;47228;46.762;23.598;2022-10-22T05:08:47;97469.20;;;5.98;76.29
61359;BME280;47228;46.762;23.598;2022-10-22T05:11:21;97465.43;;;5.97;76.60
61359;BME280;47228;46.762;23.598;2022-10-22T05:13:49;97475.03;;;5.93;76.70
61359;BME280;47228;46.762;23.598;2022-10-22T05:16:17;97477.45;;;5.90;76.69
61359;BME280;47228;46.762;23.598;2022-10-22T05:18:45;97477.75;;;5.89;76.98
61359;BME280;47228;46.762;23.598;2022-10-22T05:21:16;97476.20;;;5.90;77.43
61359;BME280;47228;46.762;23.598;2022-10-22T05:23:45;97481.01;;;5.93;77.50
61359;BME280;47228;46.762;23.598;2022-10-22T05:26:17;97473.98;;;5.94;77.59
61359;BME280;47228;46.762;23.598;2022-10-22T05:28:47;97479.66;;;5.99;77.72
61359;BME280;47228;46.762;23.598;2022-10-22T05:31:16;97486.34;;;6.04;77.92
61359;BME280;47228;46.762;23.598;2022-10-22T05:33:44;97486.27;;;6.08;77.94
61359;BME280;47228;46.762;23.598;2022-10-22T05:36:15;97488.46;;;6.10;78.05
61359;BME280;47228;46.762;23.598;2022-10-22T05:38:43;97492.80;;;6.12;77.83
61359;BME280;47228;46.762;23.598;2022-10-22T05:41:14;97489.64;;;6.15;77.86
61359;BME280;47228;46.762;23.598;2022-10-22T05:43:43;97492.80;;;6.20;78.21
61359;BME280;47228;46.762;23.598;2022-10-22T05:46:14;97499.27;;;6.25;78.15
61359;BME280;47228;46.762;23.598;2022-10-22T05:48:54;97502.10;;;6.31;78.02
61359;BME280;47228;46.762;23.598;2022-10-22T05:51:23;97502.94;;;6.37;77.86
61359;BME280;47228;46.762;23.598;2022-10-22T05:53:53;97498.77;;;6.41;77.75
61359;BME280;47228;46.762;23.598;2022-10-22T05:56:22;97502.11;;;6.44;77.62
61359;BME280;47228;46.762;23.598;2022-10-22T05:58:50;97506.22;;;6.47;77.49
61359;BME280;47228;46.762;23.598;2022-10-22T06:03:47;97507.51;;;6.52;77.74
61359;BME280;47228;46.762;23.598;2022-10-22T06:09:28;97506.17;;;6.60;77.55
61359;BME280;47228;46.762;23.598;2022-10-22T06:11:57;97510.55;;;6.63;77.67
61359;BME280;47228;46.762;23.598;2022-10-22T06:14:25;97515.19;;;6.66;78.00
61359;BME280;47228;46.762;23.598;2022-10-22T06:16:54;97517.88;;;6.70;77.89
61359;BME280;47228;46.762;23.598;2022-10-22T06:19:22;97519.00;;;6.74;77.85
61359;BME280;47228;46.762;23.598;2022-10-22T06:21:53;97515.15;;;6.77;77.60
61359;BME280;47228;46.762;23.598;2022-10-22T06:24:21;97513.52;;;6.81;77.47
61359;BME280;47228;46.762;23.598;2022-10-22T06:26:50;97516.98;;;6.84;77.24
61359;BME280;47228;46.762;23.598;2022-10-22T06:29:18;97508.98;;;6.88;77.02
61359;BME280;47228;46.762;23.598;2022-10-22T06:31:47;97502.13;;;6.91;76.68
61359;BME280;47228;46.762;23.598;2022-10-22T06:34:16;97495.33;;;6.95;76.74
61359;BME280;47228;46.762;23.598;2022-10-22T06:36:46;97490.77;;;7.00;76.35
61359;BME280;47228;46.762;23.598;2022-10-22T06:39:15;97491.04;;;7.04;76.04
61359;BME280;47228;46.762;23.598;2022-10-22T06:41:44;97486.13;;;7.06;74.84
61359;BME280;47228;46.762;23.598;2022-10-22T06:44:14;97485.17;;;7.10;73.96
61359;BME280;47228;46.762;23.598;2022-10-22T06:46:43;97483.94;;;7.15;74.04
61359;BME280;47228;46.762;23.598;2022-10-22T06:49:12;97481.95;;;7.20;73.65
61359;BME280;47228;46.762;23.598;2022-10-22T06:51:41;97478.69;;;7.24;73.08
61359;BME280;47228;46.762;23.598;2022-10-22T06:54:09;97479.17;;;7.26;72.55
61359;BME280;47228;46.762;23.598;2022-10-22T06:56:37;97481.89;;;7.28;72.27
61359;BME280;47228;46.762;23.598;2022-10-22T06:59:05;97484.81;;;7.30;72.16
61359;BME280;47228;46.762;23.598;2022-10-22T07:01:34;97488.59;;;7.36;72.09
61359;BME280;47228;46.762;23.598;2022-10-22T07:04:03;97490.41;;;7.43;72.13
61359;BME280;47228;46.762;23.598;2022-10-22T07:06:31;97492.09;;;7.50;71.79
61359;BME280;47228;46.762;23.598;2022-10-22T07:08:59;97489.12;;;7.57;71.46
61359;BME280;47228;46.762;23.598;2022-10-22T07:11:43;97487.50;;;7.64;71.13
61359;BME280;47228;46.762;23.598;2022-10-22T07:14:12;97492.08;;;7.71;70.77
61359;BME280;47228;46.762;23.598;2022-10-22T07:16:40;97495.45;;;7.79;70.49
61359;BME280;47228;46.762;23.598;2022-10-22T07:19:10;97496.36;;;7.87;70.56
61359;BME280;47228;46.762;23.598;2022-10-22T07:21:38;97495.35;;;7.96;70.46
61359;BME280;47228;46.762;23.598;2022-10-22T07:24:06;97495.97;;;8.06;70.58
61359;BME280;47228;46.762;23.598;2022-10-22T07:26:34;97497.21;;;8.15;70.25
61359;BME280;47228;46.762;23.598;2022-10-22T07:29:03;97495.30;;;8.25;70.06
61359;BME280;47228;46.762;23.598;2022-10-22T07:31:31;97497.77;;;8.34;69.23
61359;BME280;47228;46.762;23.598;2022-10-22T07:33:59;97496.88;;;8.41;68.92
61359;BME280;47228;46.762;23.598;2022-10-22T07:36:27;97498.23;;;8.51;68.91
61359;BME280;47228;46.762;23.598;2022-10-22T07:38:57;97495.34;;;8.60;68.87
61359;BME280;47228;46.762;23.598;2022-10-22T07:41:27;97496.94;;;8.71;68.47
61359;BME280;47228;46.762;23.598;2022-10-22T07:43:56;97493.17;;;8.80;68.05
61359;BME280;47228;46.762;23.598;2022-10-22T07:46:25;97490.85;;;8.89;68.18
61359;BME280;47228;46.762;23.598;2022-10-22T07:48:53;97490.75;;;9.00;67.88
61359;BME280;47228;46.762;23.598;2022-10-22T07:51:21;97486.43;;;9.14;67.92
61359;BME280;47228;46.762;23.598;2022-10-22T07:53:50;97490.83;;;9.28;67.72
61359;BME280;47228;46.762;23.598;2022-10-22T07:56:18;97488.23;;;9.41;67.17
61359;BME280;47228;46.762;23.598;2022-10-22T07:58:46;97485.46;;;9.53;66.74
61359;BME280;47228;46.762;23.598;2022-10-22T08:01:13;97494.70;;;9.66;66.50
61359;BME280;47228;46.762;23.598;2022-10-22T08:03:42;97495.52;;;9.75;65.97
61359;BME280;47228;46.762;23.598;2022-10-22T08:06:14;97495.33;;;9.83;65.89
61359;BME280;47228;46.762;23.598;2022-10-22T08:08:42;97491.46;;;9.93;65.76
61359;BME280;47228;46.762;23.598;2022-10-22T08:11:12;97493.30;;;10.00;65.75
61359;BME280;47228;46.762;23.598;2022-10-22T08:13:40;97497.79;;;10.07;65.75
61359;BME280;47228;46.762;23.598;2022-10-22T08:16:11;97495.98;;;10.15;65.48
61359;BME280;47228;46.762;23.598;2022-10-22T08:18:39;97497.53;;;10.22;65.57
61359;BME280;47228;46.762;23.598;2022-10-22T08:21:07;97500.42;;;10.29;65.37
61359;BME280;47228;46.762;23.598;2022-10-22T08:23:35;97500.80;;;10.34;64.59
61359;BME280;47228;46.762;23.598;2022-10-22T08:26:04;97501.47;;;10.37;64.16
61359;BME280;47228;46.762;23.598;2022-10-22T08:28:31;97501.05;;;10.43;64.35
61359;BME280;47228;46.762;23.598;2022-10-22T08:31:05;97498.65;;;10.48;64.38
61359;BME280;47228;46.762;23.598;2022-10-22T08:33:34;97500.10;;;10.56;65.43
61359;BME280;47228;46.762;23.598;2022-10-22T08:36:03;97498.34;;;10.66;65.48
61359;BME280;47228;46.762;23.598;2022-10-22T08:38:31;97499.09;;;10.75;64.65
61359;BME280;47228;46.762;23.598;2022-10-22T08:41:13;97498.53;;;10.81;64.02
61359;BME280;47228;46.762;23.598;2022-10-22T08:48:58;97506.80;;;10.84;63.46
61359;BME280;47228;46.762;23.598;2022-10-22T08:51:31;97512.95;;;10.83;63.68
61359;BME280;47228;46.762;23.598;2022-10-22T08:56:46;97516.70;;;10.90;64.15
61359;BME280;47228;46.762;23.598;2022-10-22T09:01:58;97516.67;;;10.97;63.69
61359;BME280;47228;46.762;23.598;2022-10-22T09:04:35;97523.02;;;11.03;64.24
61359;BME280;47228;46.762;23.598;2022-10-22T09:07:05;97524.21;;;11.11;64.23
61359;BME280;47228;46.762;23.598;2022-10-22T09:09:35;97521.23;;;11.19;64.24
61359;BME280;47228;46.762;23.598;2022-10-22T09:12:10;97522.55;;;11.27;64.04
61359;BME280;47228;46.762;23.598;2022-10-22T09:14:46;97521.21;;;11.32;64.15
61359;BME280;47228;46.762;23.598;2022-10-22T09:17:25;97522.55;;;11.36;63.84
61359;BME280;47228;46.762;23.598;2022-10-22T09:20:15;97527.77;;;11.40;63.91
61359;BME280;47228;46.762;23.598;2022-10-22T09:22:59;97525.79;;;11.44;63.36
61359;BME280;47228;46.762;23.598;2022-10-22T09:25:32;97521.95;;;11.46;63.29
61359;BME280;47228;46.762;23.598;2022-10-22T09:28:03;97513.27;;;11.50;63.60
61359;BME280;47228;46.762;23.598;2022-10-22T09:30:36;97516.21;;;11.55;63.44
61359;BME280;47228;46.762;23.598;2022-10-22T09:35:47;97518.34;;;11.62;63.54
61359;BME280;47228;46.762;23.598;2022-10-22T09:38:20;97516.98;;;11.65;63.63
61359;BME280;47228;46.762;23.598;2022-10-22T09:40:52;97515.42;;;11.70;64.03
61359;BME280;47228;46.762;23.598;2022-10-22T09:43:21;97514.44;;;11.76;63.68
61359;BME280;47228;46.762;23.598;2022-10-22T09:45:55;97510.50;;;11.85;62.96
61359;BME280;47228;46.762;23.598;2022-10-22T09:51:19;97508.00;;;12.07;63.39
61359;BME280;47228;46.762;23.598;2022-10-22T09:59:37;97503.33;;;12.55;61.82
61359;BME280;47228;46.762;23.598;2022-10-22T10:04:51;97498.56;;;12.78;60.66
61359;BME280;47228;46.762;23.598;2022-10-22T10:07:30;97494.64;;;12.90;60.77
61359;BME280;47228;46.762;23.598;2022-10-22T10:09:58;97495.54;;;13.04;60.63
61359;BME280;47228;46.762;23.598;2022-10-22T10:12:55;97493.98;;;13.17;60.33
61359;BME280;47228;46.762;23.598;2022-10-22T10:18:21;97491.20;;;13.37;59.81
61359;BME280;47228;46.762;23.598;2022-10-22T10:26:35;97487.56;;;13.51;59.08
61359;BME280;47228;46.762;23.598;2022-10-22T10:29:23;97487.74;;;13.55;59.34
61359;BME280;47228;46.762;23.598;2022-10-22T10:32:15;97487.09;;;13.60;59.51
61359;BME280;47228;46.762;23.598;2022-10-22T10:35:08;97487.38;;;13.68;59.74
61359;BME280;47228;46.762;23.598;2022-10-22T10:37:48;97489.13;;;13.78;59.68
61359;BME280;47228;46.762;23.598;2022-10-22T10:40:35;97488.79;;;13.91;58.94
61359;BME280;47228;46.762;23.598;2022-10-22T10:49:22;97488.67;;;14.25;57.92
61359;BME280;47228;46.762;23.598;2022-10-22T10:51:48;97489.25;;;14.35;58.25
61359;BME280;47228;46.762;23.598;2022-10-22T10:54:33;97486.49;;;14.45;58.18
61359;BME280;47228;46.762;23.598;2022-10-22T11:16:20;97464.41;;;14.98;56.24
61359;BME280;47228;46.762;23.598;2022-10-22T11:27:41;97454.97;;;15.17;56.21
61359;BME280;47228;46.762;23.598;2022-10-22T11:30:14;97451.80;;;15.23;56.36
61359;BME280;47228;46.762;23.598;2022-10-22T11:32:46;97449.85;;;15.29;55.99
61359;BME280;47228;46.762;23.598;2022-10-22T11:35:22;97448.88;;;15.35;55.74
61359;BME280;47228;46.762;23.598;2022-10-22T11:37:54;97446.23;;;15.42;55.29
61359;BME280;47228;46.762;23.598;2022-10-22T11:40:37;97448.09;;;15.46;55.31
61359;BME280;47228;46.762;23.598;2022-10-22T11:43:10;97448.42;;;15.49;54.78
61359;BME280;47228;46.762;23.598;2022-10-22T11:45:59;97444.31;;;15.52;55.08
61359;BME280;47228;46.762;23.598;2022-10-22T11:48:35;97441.29;;;15.53;55.26
61359;BME280;47228;46.762;23.598;2022-10-22T11:51:33;97435.37;;;15.55;54.68
61359;BME280;47228;46.762;23.598;2022-10-22T11:59:50;97435.87;;;15.62;54.71
61359;BME280;47228;46.762;23.598;2022-10-22T12:02:31;97432.77;;;15.62;54.81
61359;BME280;47228;46.762;23.598;2022-10-22T12:07:54;97435.86;;;15.59;54.70
61359;BME280;47228;46.762;23.598;2022-10-22T12:10:34;97434.33;;;15.58;55.02
61359;BME280;47228;46.762;23.598;2022-10-22T12:13:20;97439.62;;;15.57;55.13
61359;BME280;47228;46.762;23.598;2022-10-22T12:15:53;97435.30;;;15.56;55.14
61359;BME280;47228;46.762;23.598;2022-10-22T12:18:24;97433.53;;;15.56;55.57
61359;BME280;47228;46.762;23.598;2022-10-22T12:20:54;97433.46;;;15.55;55.54
61359;BME280;47228;46.762;23.598;2022-10-22T12:23:28;97428.81;;;15.56;55.94
61359;BME280;47228;46.762;23.598;2022-10-22T12:25:56;97427.73;;;15.55;56.17
61359;BME280;47228;46.762;23.598;2022-10-22T12:28:25;97429.56;;;15.55;56.31
61359;BME280;47228;46.762;23.598;2022-10-22T12:30:53;97427.80;;;15.55;56.56
61359;BME280;47228;46.762;23.598;2022-10-22T12:33:22;97426.34;;;15.55;56.72
61359;BME280;47228;46.762;23.598;2022-10-22T12:35:50;97426.50;;;15.55;56.90
61359;BME280;47228;46.762;23.598;2022-10-22T12:38:22;97425.23;;;15.56;57.06
61359;BME280;47228;46.762;23.598;2022-10-22T12:40:55;97425.10;;;15.55;56.51
61359;BME280;47228;46.762;23.598;2022-10-22T12:43:28;97424.52;;;15.55;56.66
61359;BME280;47228;46.762;23.598;2022-10-22T12:45:57;97417.91;;;15.54;56.28
61359;BME280;47228;46.762;23.598;2022-10-22T12:48:30;97415.70;;;15.54;56.43
61359;BME280;47228;46.762;23.598;2022-10-22T12:51:03;97416.33;;;15.53;56.87
61359;BME280;47228;46.762;23.598;2022-10-22T12:53:36;97415.52;;;15.52;56.82
61359;BME280;47228;46.762;23.598;2022-10-22T12:56:10;97409.05;;;15.50;56.99
61359;BME280;47228;46.762;23.598;2022-10-22T12:58:42;97410.70;;;15.47;56.77
61359;BME280;47228;46.762;23.598;2022-10-22T13:01:13;97412.31;;;15.45;57.17
61359;BME280;47228;46.762;23.598;2022-10-22T13:03:51;97413.98;;;15.44;57.42
61359;BME280;47228;46.762;23.598;2022-10-22T13:06:33;97405.95;;;15.41;57.13
61359;BME280;47228;46.762;23.598;2022-10-22T13:09:11;97400.80;;;15.40;56.83
61359;BME280;47228;46.762;23.598;2022-10-22T13:11:53;97396.00;;;15.39;57.08
61359;BME280;47228;46.762;23.598;2022-10-22T13:22:34;97400.15;;;15.30;57.42
61359;BME280;47228;46.762;23.598;2022-10-22T13:27:56;97401.48;;;15.25;58.33
61359;BME280;47228;46.762;23.598;2022-10-22T13:30:31;97396.44;;;15.21;58.25
61359;BME280;47228;46.762;23.598;2022-10-22T13:33:03;97396.49;;;15.17;58.26
61359;BME280;47228;46.762;23.598;2022-10-22T13:35:36;97392.06;;;15.14;58.19
61359;BME280;47228;46.762;23.598;2022-10-22T13:38:14;97383.91;;;15.09;58.54
61359;BME280;47228;46.762;23.598;2022-10-22T13:40:45;97377.22;;;15.05;58.86
61359;BME280;47228;46.762;23.598;2022-10-22T13:43:15;97379.09;;;15.03;59.02
61359;BME280;47228;46.762;23.598;2022-10-22T13:45:44;97374.67;;;14.99;58.92
61359;BME280;47228;46.762;23.598;2022-10-22T13:48:14;97370.97;;;14.96;58.90
61359;BME280;47228;46.762;23.598;2022-10-22T13:50:43;97376.48;;;14.94;59.45
61359;BME280;47228;46.762;23.598;2022-10-22T13:53:16;97375.10;;;14.92;59.48
61359;BME280;47228;46.762;23.598;2022-10-22T13:55:45;97371.80;;;14.90;59.62
61359;BME280;47228;46.762;23.598;2022-10-22T13:58:16;97367.96;;;14.89;59.94
61359;BME280;47228;46.762;23.598;2022-10-22T14:00:55;97364.64;;;14.86;59.71
61359;BME280;47228;46.762;23.598;2022-10-22T14:03:29;97363.05;;;14.82;59.79
61359;BME280;47228;46.762;23.598;2022-10-22T14:05:59;97360.86;;;14.80;60.21
61359;BME280;47228;46.762;23.598;2022-10-22T14:08:27;97364.34;;;14.78;60.43
61359;BME280;47228;46.762;23.598;2022-10-22T14:10:55;97357.95;;;14.75;60.62
61359;BME280;47228;46.762;23.598;2022-10-22T14:13:23;97352.70;;;14.73;60.95
61359;BME280;47228;46.762;23.598;2022-10-22T14:15:52;97358.59;;;14.73;60.98
61359;BME280;47228;46.762;23.598;2022-10-22T14:18:23;97363.54;;;14.72;60.87
61359;BME280;47228;46.762;23.598;2022-10-22T14:20:57;97357.64;;;14.71;60.55
61359;BME280;47228;46.762;23.598;2022-10-22T14:23:28;97351.55;;;14.71;60.76
61359;BME280;47228;46.762;23.598;2022-10-22T14:25:58;97350.30;;;14.71;60.91
61359;BME280;47228;46.762;23.598;2022-10-22T14:28:26;97349.98;;;14.71;61.30
61359;BME280;47228;46.762;23.598;2022-10-22T14:30:54;97348.29;;;14.69;61.18
61359;BME280;47228;46.762;23.598;2022-10-22T14:33:28;97341.74;;;14.67;60.85
61359;BME280;47228;46.762;23.598;2022-10-22T14:35:59;97339.89;;;14.65;60.98
61359;BME280;47228;46.762;23.598;2022-10-22T14:38:28;97338.71;;;14.63;61.22
61359;BME280;47228;46.762;23.598;2022-10-22T14:40:58;97329.91;;;14.61;61.19
61359;BME280;47228;46.762;23.598;2022-10-22T14:43:28;97332.90;;;14.59;61.21
61359;BME280;47228;46.762;23.598;2022-10-22T14:45:57;97333.30;;;14.55;60.66
61359;BME280;47228;46.762;23.598;2022-10-22T14:48:25;97339.20;;;14.51;60.58
61359;BME280;47228;46.762;23.598;2022-10-22T14:50:54;97339.59;;;14.48;60.59
61359;BME280;47228;46.762;23.598;2022-10-22T14:53:21;97334.81;;;14.45;60.54
61359;BME280;47228;46.762;23.598;2022-10-22T14:55:49;97334.61;;;14.41;60.74
61359;BME280;47228;46.762;23.598;2022-10-22T14:58:18;97338.32;;;14.38;61.04
61359;BME280;47228;46.762;23.598;2022-10-22T15:00:45;97330.20;;;14.33;61.10
61359;BME280;47228;46.762;23.598;2022-10-22T15:03:13;97327.37;;;14.30;61.61
61359;BME280;47228;46.762;23.598;2022-10-22T15:05:42;97328.33;;;14.27;61.83
61359;BME280;47228;46.762;23.598;2022-10-22T15:08:13;97333.27;;;14.24;62.02
61359;BME280;47228;46.762;23.598;2022-10-22T15:10:41;97334.98;;;14.20;61.94